createdAt,value
2022-12-05T00:00:12.362Z,0
2022-12-05T00:01:12.952Z,0
2022-12-05T00:02:13.678Z,0
2022-12-05T00:03:14.305Z,0
2022-12-05T00:04:15.022Z,0
2022-12-05T00:05:15.611Z,0
2022-12-05T00:06:16.204Z,0
2022-12-05T00:07:16.796Z,0
2022-12-05T00:08:17.503Z,0
2022-12-05T00:09:18.055Z,0
2022-12-05T00:10:18.651Z,0
2022-12-05T00:11:19.242Z,0
2022-12-05T00:12:19.857Z,0
2022-12-05T00:13:20.451Z,0
2022-12-05T00:14:21.045Z,0
2022-12-05T00:15:21.640Z,0
2022-12-05T00:16:22.296Z,0
2022-12-05T00:17:22.851Z,0
2022-12-05T00:18:23.463Z,0
2022-12-05T00:19:24.054Z,0
2022-12-05T00:20:24.652Z,0
2022-12-05T00:21:25.245Z,0
2022-12-05T00:22:25.839Z,0
2022-12-05T00:23:26.433Z,0
2022-12-05T00:24:27.026Z,0
2022-12-05T00:25:27.617Z,0
2022-12-05T00:26:28.211Z,0
2022-12-05T00:27:28.805Z,0
2022-12-05T00:28:29.400Z,0
2022-12-05T00:29:30.013Z,0
2022-12-05T00:30:30.608Z,0
2022-12-05T00:31:31.266Z,0
2022-12-05T00:32:31.808Z,0
2022-12-05T00:33:32.404Z,0
2022-12-05T00:34:32.998Z,0
2022-12-05T00:35:33.591Z,0
2022-12-05T00:36:34.187Z,0
2022-12-05T00:37:34.780Z,0
2022-12-05T00:38:35.396Z,0
2022-12-05T00:39:35.989Z,0
2022-12-05T00:40:36.583Z,0
2022-12-05T00:41:37.175Z,0
2022-12-05T00:42:37.770Z,0
2022-12-05T00:43:38.362Z,0
2022-12-05T00:44:38.959Z,0
2022-12-05T00:45:39.582Z,0
2022-12-05T00:46:40.150Z,0
2022-12-05T00:47:40.742Z,0
2022-12-05T00:48:41.338Z,0
2022-12-05T00:49:41.931Z,0
2022-12-05T00:50:42.528Z,0
2022-12-05T00:51:43.123Z,0
2022-12-05T00:52:43.716Z,0
2022-12-05T00:53:44.309Z,0
2022-12-05T00:54:44.904Z,0
2022-12-05T00:55:45.516Z,0
2022-12-05T00:56:46.131Z,0
2022-12-05T00:57:46.723Z,0
2022-12-05T00:58:47.318Z,0
2022-12-05T00:59:47.917Z,0
2022-12-05T01:00:48.564Z,0
2022-12-05T01:01:49.254Z,0
2022-12-05T01:02:55.765Z,0
2022-12-05T01:03:51.366Z,0
2022-12-05T01:04:51.960Z,0
2022-12-05T01:05:52.555Z,0
2022-12-05T01:06:53.149Z,0
2022-12-05T01:07:53.770Z,0
2022-12-05T01:08:54.335Z,0
2022-12-05T01:09:55.223Z,0
2022-12-05T01:10:55.952Z,0
2022-12-05T01:11:56.565Z,0
2022-12-05T01:12:57.157Z,0
2022-12-05T01:13:57.755Z,0
2022-12-05T01:14:58.346Z,0
2022-12-05T01:15:58.940Z,0
2022-12-05T01:16:59.602Z,0
2022-12-05T01:18:00.135Z,0
2022-12-05T01:19:00.751Z,0
2022-12-05T01:20:01.366Z,0
2022-12-05T01:21:01.959Z,0
2022-12-05T01:22:02.554Z,0
2022-12-05T01:23:03.146Z,0
2022-12-05T01:24:03.738Z,0
2022-12-05T01:25:04.333Z,0
2022-12-05T01:26:04.926Z,0
2022-12-05T01:27:05.522Z,0
2022-12-05T01:28:06.115Z,0
2022-12-05T01:29:06.757Z,0
2022-12-05T01:30:07.311Z,0
2022-12-05T01:31:07.907Z,0
2022-12-05T01:32:08.683Z,0
2022-12-05T01:33:09.314Z,0
2022-12-05T01:34:09.928Z,0
2022-12-05T01:35:10.523Z,0
2022-12-05T01:36:11.136Z,0
2022-12-05T01:37:11.734Z,0
2022-12-05T01:38:12.343Z,0
2022-12-05T01:39:12.937Z,0
2022-12-05T01:40:13.530Z,0
2022-12-05T01:41:14.128Z,0
2022-12-05T01:42:14.718Z,0
2022-12-05T01:43:15.313Z,0
2022-12-05T01:44:15.911Z,0
2022-12-05T01:45:16.523Z,0
2022-12-05T01:46:17.203Z,0
2022-12-05T01:47:17.803Z,0
2022-12-05T01:48:18.379Z,0
2022-12-05T01:49:18.988Z,0
2022-12-05T01:50:19.585Z,0
2022-12-05T01:51:20.178Z,0
2022-12-05T01:52:20.774Z,0
2022-12-05T01:53:21.363Z,0
2022-12-05T01:54:21.958Z,0
2022-12-05T01:55:22.554Z,0
2022-12-05T01:56:23.146Z,0
2022-12-05T01:57:23.739Z,0
2022-12-05T01:58:24.337Z,0
2022-12-05T01:59:24.927Z,0
2022-12-05T02:00:25.522Z,0
2022-12-05T02:01:26.172Z,0
2022-12-05T02:02:26.886Z,0
2022-12-05T02:03:27.419Z,0
2022-12-05T02:04:28.014Z,0
2022-12-05T02:05:28.607Z,0
2022-12-05T02:06:29.201Z,0
2022-12-05T02:07:29.907Z,0
2022-12-05T02:08:30.470Z,0
2022-12-05T02:09:31.067Z,0
2022-12-05T02:10:31.683Z,0
2022-12-05T02:11:32.272Z,0
2022-12-05T02:12:32.870Z,0
2022-12-05T02:13:33.463Z,0
2022-12-05T02:14:34.057Z,0
2022-12-05T02:15:34.649Z,0
2022-12-05T02:16:35.301Z,0
2022-12-05T02:17:35.851Z,0
2022-12-05T02:18:36.448Z,0
2022-12-05T02:19:37.040Z,0
2022-12-05T02:20:37.636Z,0
2022-12-05T02:21:38.230Z,0
2022-12-05T02:22:38.826Z,0
2022-12-05T02:23:39.421Z,0
2022-12-05T02:24:40.013Z,0
2022-12-05T02:25:40.607Z,0
2022-12-05T02:26:41.219Z,0
2022-12-05T02:27:41.812Z,0
2022-12-05T02:28:42.407Z,0
2022-12-05T02:29:43.001Z,0
2022-12-05T02:30:43.597Z,0
2022-12-05T02:31:44.253Z,0
2022-12-05T02:32:44.799Z,0
2022-12-05T02:33:45.391Z,0
2022-12-05T02:34:45.987Z,0
2022-12-05T02:35:46.578Z,0
2022-12-05T02:36:47.175Z,0
2022-12-05T02:37:47.767Z,0
2022-12-05T02:38:48.367Z,0
2022-12-05T02:39:48.954Z,0
2022-12-05T02:40:49.547Z,0
2022-12-05T02:41:50.141Z,0
2022-12-05T02:42:50.754Z,0
2022-12-05T02:43:51.344Z,0
2022-12-05T02:44:51.943Z,0
2022-12-05T02:45:52.584Z,0
2022-12-05T02:46:53.152Z,0
2022-12-05T02:47:53.747Z,0
2022-12-05T02:48:54.341Z,0
2022-12-05T02:49:55.237Z,0
2022-12-05T02:50:55.920Z,0
2022-12-05T02:51:56.512Z,0
2022-12-05T02:52:57.106Z,0
2022-12-05T02:53:57.697Z,0
2022-12-05T02:54:58.312Z,0
2022-12-05T02:55:58.909Z,0
2022-12-05T02:56:59.503Z,0
2022-12-05T02:58:00.100Z,0
2022-12-05T02:59:00.693Z,0
2022-12-05T03:00:01.287Z,0
2022-12-05T03:01:01.899Z,0
2022-12-05T03:02:02.475Z,0
2022-12-05T03:03:03.068Z,0
2022-12-05T03:04:03.687Z,0
2022-12-05T03:05:04.254Z,0
2022-12-05T03:06:04.844Z,0
2022-12-05T03:07:05.441Z,0
2022-12-05T03:08:06.098Z,0
2022-12-05T03:09:06.664Z,0
2022-12-05T03:10:07.258Z,0
2022-12-05T03:11:07.872Z,0
2022-12-05T03:12:08.488Z,0
2022-12-05T03:13:09.080Z,0
2022-12-05T03:14:09.675Z,0
2022-12-05T03:15:10.275Z,0
2022-12-05T03:16:10.935Z,0
2022-12-05T03:17:11.590Z,0
2022-12-05T03:18:12.162Z,0
2022-12-05T03:19:12.757Z,0
2022-12-05T03:20:13.356Z,0
2022-12-05T03:21:13.948Z,0
2022-12-05T03:22:14.539Z,0
2022-12-05T03:23:15.151Z,0
2022-12-05T03:24:15.746Z,0
2022-12-05T03:25:16.340Z,0
2022-12-05T03:26:16.934Z,0
2022-12-05T03:27:17.548Z,0
2022-12-05T03:28:18.141Z,0
2022-12-05T03:29:18.736Z,0
2022-12-05T03:30:19.329Z,0
2022-12-05T03:31:19.993Z,0
2022-12-05T03:32:20.561Z,0
2022-12-05T03:33:21.156Z,0
2022-12-05T03:34:21.749Z,0
2022-12-05T03:35:22.345Z,0
2022-12-05T03:36:22.944Z,0
2022-12-05T03:37:23.533Z,0
2022-12-05T03:38:24.128Z,0
2022-12-05T03:39:24.729Z,0
2022-12-05T03:40:25.318Z,0
2022-12-05T03:41:25.918Z,0
2022-12-05T03:42:26.545Z,0
2022-12-05T03:43:27.127Z,0
2022-12-05T03:44:27.724Z,0
2022-12-05T03:45:28.321Z,0
2022-12-05T03:46:28.976Z,0
2022-12-05T03:47:29.543Z,0
2022-12-05T03:48:30.159Z,0
2022-12-05T03:49:33.815Z,0
2022-12-05T03:50:32.339Z,0
2022-12-05T03:51:32.944Z,0
2022-12-05T03:52:51.039Z,0
2022-12-05T03:53:35.113Z,0
2022-12-05T03:54:35.705Z,0
2022-12-05T03:55:36.302Z,0
2022-12-05T03:56:36.896Z,0
2022-12-05T03:57:37.489Z,0
2022-12-05T03:58:38.082Z,0
2022-12-05T03:59:38.677Z,0
2022-12-05T04:00:39.272Z,0
2022-12-05T04:01:39.935Z,0
2022-12-05T04:02:40.499Z,0
2022-12-05T04:03:41.175Z,0
2022-12-05T04:04:41.748Z,0
2022-12-05T04:05:42.340Z,0
2022-12-05T04:06:42.934Z,0
2022-12-05T04:07:43.594Z,0
2022-12-05T04:08:44.150Z,0
2022-12-05T04:09:44.746Z,0
2022-12-05T04:10:45.359Z,0
2022-12-05T04:11:45.954Z,0
2022-12-05T04:12:46.550Z,0
2022-12-05T04:13:47.145Z,0
2022-12-05T04:14:47.740Z,0
2022-12-05T04:15:48.357Z,0
2022-12-05T04:16:48.952Z,0
2022-12-05T04:17:53.513Z,0
2022-12-05T04:18:51.132Z,0
2022-12-05T04:19:51.727Z,0
2022-12-05T04:20:52.321Z,0
2022-12-05T04:21:52.917Z,0
2022-12-05T04:22:53.511Z,0
2022-12-05T04:23:54.107Z,0
2022-12-05T04:24:54.702Z,0
2022-12-05T04:25:55.298Z,0
2022-12-05T04:26:55.914Z,0
2022-12-05T04:27:56.510Z,0
2022-12-05T04:28:57.106Z,0
2022-12-05T04:29:57.884Z,0
2022-12-05T04:30:58.577Z,0
2022-12-05T04:31:59.124Z,0
2022-12-05T04:32:59.738Z,0
2022-12-05T04:34:00.335Z,0
2022-12-05T04:35:00.926Z,0
2022-12-05T04:36:01.521Z,0
2022-12-05T04:37:02.115Z,0
2022-12-05T04:38:02.711Z,0
2022-12-05T04:39:03.304Z,0
2022-12-05T04:40:03.899Z,0
2022-12-05T04:41:04.499Z,0
2022-12-05T04:42:05.090Z,0
2022-12-05T04:43:05.684Z,0
2022-12-05T04:44:06.286Z,0
2022-12-05T04:45:06.880Z,0
2022-12-05T04:46:07.518Z,0
2022-12-05T04:47:08.070Z,0
2022-12-05T04:48:08.667Z,0
2022-12-05T04:49:09.259Z,0
2022-12-05T04:50:09.876Z,0
2022-12-05T04:51:10.471Z,0
2022-12-05T04:52:11.074Z,0
2022-12-05T04:53:11.663Z,0
2022-12-05T04:54:12.257Z,0
2022-12-05T04:55:12.856Z,0
2022-12-05T04:56:13.469Z,0
2022-12-05T04:57:14.062Z,0
2022-12-05T04:58:14.658Z,0
2022-12-05T04:59:15.252Z,0
2022-12-05T05:00:15.849Z,0
2022-12-05T05:01:16.502Z,0
2022-12-05T05:02:17.067Z,0
2022-12-05T05:03:17.703Z,0
2022-12-05T05:04:18.256Z,0
2022-12-05T05:05:18.850Z,0
2022-12-05T05:06:19.446Z,0
2022-12-05T05:07:20.041Z,0
2022-12-05T05:08:20.752Z,0
2022-12-05T05:09:21.354Z,0
2022-12-05T05:10:21.951Z,0
2022-12-05T05:11:22.545Z,0
2022-12-05T05:12:23.141Z,0
2022-12-05T05:13:23.733Z,0
2022-12-05T05:14:24.351Z,0
2022-12-05T05:15:24.964Z,0
2022-12-05T05:16:25.641Z,0
2022-12-05T05:17:26.217Z,0
2022-12-05T05:18:26.833Z,0
2022-12-05T05:19:27.433Z,0
2022-12-05T05:20:28.040Z,0
2022-12-05T05:21:28.664Z,0
2022-12-05T05:22:29.252Z,0
2022-12-05T05:23:29.847Z,0
2022-12-05T05:24:30.441Z,0
2022-12-05T05:25:31.038Z,0
2022-12-05T05:26:31.634Z,0
2022-12-05T05:27:32.230Z,0
2022-12-05T05:28:32.826Z,0
2022-12-05T05:29:33.423Z,0
2022-12-05T05:30:34.018Z,0
2022-12-05T05:31:34.705Z,0
2022-12-05T05:32:35.283Z,0
2022-12-05T05:33:35.882Z,0
2022-12-05T05:34:36.494Z,0
2022-12-05T05:35:37.087Z,0
2022-12-05T05:36:37.689Z,0
2022-12-05T05:37:38.277Z,0
2022-12-05T05:38:38.873Z,0
2022-12-05T05:39:39.489Z,0
2022-12-05T05:40:40.087Z,0
2022-12-05T05:41:40.682Z,0
2022-12-05T05:42:41.277Z,0
2022-12-05T05:43:41.871Z,0
2022-12-05T05:44:42.472Z,0
2022-12-05T05:45:43.064Z,0
2022-12-05T05:46:43.717Z,0
2022-12-05T05:47:44.284Z,0
2022-12-05T05:48:44.877Z,0
2022-12-05T05:49:45.473Z,0
2022-12-05T05:50:46.068Z,0
2022-12-05T05:51:46.666Z,0
2022-12-05T05:52:47.263Z,0
2022-12-05T05:53:47.865Z,0
2022-12-05T05:54:48.475Z,0
2022-12-05T05:55:49.111Z,0
2022-12-05T05:56:49.705Z,0
2022-12-05T05:57:50.303Z,0
2022-12-05T05:58:50.900Z,0
2022-12-05T05:59:51.500Z,0
2022-12-05T06:00:52.121Z,0
2022-12-05T06:01:52.691Z,0
2022-12-05T06:02:53.370Z,0
2022-12-05T06:03:54.094Z,0
2022-12-05T06:04:54.737Z,0
2022-12-05T06:05:55.333Z,0
2022-12-05T06:06:55.929Z,0
2022-12-05T06:07:56.645Z,0
2022-12-05T06:08:57.239Z,0
2022-12-05T06:09:58.150Z,0
2022-12-05T06:10:58.818Z,0
2022-12-05T06:11:59.416Z,0
2022-12-05T06:13:00.016Z,0
2022-12-05T06:14:00.628Z,0
2022-12-05T06:15:01.225Z,0
2022-12-05T06:16:01.860Z,0
2022-12-05T06:17:02.435Z,0
2022-12-05T06:18:03.033Z,0
2022-12-05T06:19:03.629Z,0
2022-12-05T06:20:04.224Z,0
2022-12-05T06:21:04.820Z,0
2022-12-05T06:22:05.417Z,0
2022-12-05T06:23:06.015Z,0
2022-12-05T06:24:06.613Z,0
2022-12-05T06:25:07.209Z,0
2022-12-05T06:26:07.803Z,0
2022-12-05T06:27:08.399Z,0
2022-12-05T06:28:09.000Z,0
2022-12-05T06:29:09.593Z,0
2022-12-05T06:30:10.188Z,0
2022-12-05T06:31:10.842Z,0
2022-12-05T06:32:11.460Z,0
2022-12-05T06:33:12.054Z,0
2022-12-05T06:34:12.648Z,0
2022-12-05T06:35:13.245Z,0
2022-12-05T06:36:13.842Z,0
2022-12-05T06:37:14.437Z,0
2022-12-05T06:38:15.036Z,0
2022-12-05T06:39:15.631Z,0
2022-12-05T06:40:16.248Z,0
2022-12-05T06:41:16.840Z,0
2022-12-05T06:42:17.438Z,0
2022-12-05T06:43:18.033Z,0
2022-12-05T06:44:18.630Z,0
2022-12-05T06:45:19.226Z,0
2022-12-05T06:46:19.846Z,0
2022-12-05T06:47:20.419Z,4
2022-12-05T06:48:21.019Z,4
2022-12-05T06:49:25.028Z,0
2022-12-05T06:50:23.201Z,0
2022-12-05T06:51:23.797Z,4
2022-12-05T06:52:24.394Z,8
2022-12-05T06:53:25.007Z,4
2022-12-05T06:54:25.604Z,8
2022-12-05T06:55:26.202Z,8
2022-12-05T06:56:26.798Z,8
2022-12-05T06:57:27.392Z,8
2022-12-05T06:58:27.991Z,12
2022-12-05T06:59:28.608Z,12
2022-12-05T07:00:29.215Z,12
2022-12-05T07:01:29.856Z,16
2022-12-05T07:02:30.505Z,20
2022-12-05T07:03:31.108Z,20
2022-12-05T07:04:31.709Z,24
2022-12-05T07:05:32.304Z,24
2022-12-05T07:06:32.904Z,28
2022-12-05T07:07:33.556Z,28
2022-12-05T07:08:34.099Z,32
2022-12-05T07:09:34.693Z,32
2022-12-05T07:10:35.310Z,36
2022-12-05T07:11:35.908Z,36
2022-12-05T07:12:36.526Z,40
2022-12-05T07:13:37.117Z,44
2022-12-05T07:14:49.007Z,48
2022-12-05T07:15:39.301Z,56
2022-12-05T07:16:40.011Z,56
2022-12-05T07:17:40.510Z,64
2022-12-05T07:18:41.109Z,68
2022-12-05T07:19:41.704Z,72
2022-12-05T07:21:10.645Z,76
2022-12-05T07:21:43.766Z,88
2022-12-05T07:22:44.383Z,100
2022-12-05T07:23:44.980Z,116
2022-12-05T07:24:45.595Z,136
2022-12-05T07:25:46.173Z,152
2022-12-05T07:26:46.772Z,176
2022-12-05T07:27:47.365Z,200
2022-12-05T07:28:47.966Z,220
2022-12-05T07:29:48.563Z,240
2022-12-05T07:30:49.180Z,260
2022-12-05T07:31:49.944Z,288
2022-12-05T07:32:50.523Z,296
2022-12-05T07:33:51.121Z,304
2022-12-05T07:34:55.216Z,316
2022-12-05T07:35:52.335Z,336
2022-12-05T07:36:52.934Z,344
2022-12-05T07:37:53.532Z,352
2022-12-05T07:38:54.129Z,340
2022-12-05T07:39:54.833Z,344
2022-12-05T07:40:55.490Z,344
2022-12-05T07:41:56.088Z,360
2022-12-05T07:42:56.710Z,372
2022-12-05T07:43:57.307Z,380
2022-12-05T07:44:57.904Z,396
2022-12-05T07:45:58.568Z,416
2022-12-05T07:46:59.138Z,436
2022-12-05T07:47:59.839Z,464
2022-12-05T07:49:00.423Z,504
2022-12-05T07:50:01.144Z,532
2022-12-05T07:51:01.756Z,548
2022-12-05T07:52:02.355Z,568
2022-12-05T07:53:02.953Z,616
2022-12-05T07:54:03.557Z,680
2022-12-05T07:55:04.168Z,716
2022-12-05T07:56:04.769Z,740
2022-12-05T07:57:05.369Z,772
2022-12-05T07:58:05.966Z,820
2022-12-05T07:59:06.566Z,856
2022-12-05T08:00:07.161Z,876
2022-12-05T08:01:07.804Z,888
2022-12-05T08:02:08.421Z,920
2022-12-05T08:03:08.987Z,868
2022-12-05T08:04:14.837Z,872
2022-12-05T08:05:11.179Z,912
2022-12-05T08:06:11.776Z,952
2022-12-05T08:07:12.377Z,932
2022-12-05T08:08:12.997Z,920
2022-12-05T08:09:13.574Z,892
2022-12-05T08:10:14.190Z,912
2022-12-05T08:11:14.796Z,924
2022-12-05T08:12:15.395Z,924
2022-12-05T08:13:15.987Z,896
2022-12-05T08:14:16.585Z,896
2022-12-05T08:15:17.204Z,920
2022-12-05T08:16:17.853Z,984
2022-12-05T08:17:18.416Z,1028
2022-12-05T08:18:21.980Z,1036
2022-12-05T08:19:20.608Z,1060
2022-12-05T08:20:21.206Z,1132
2022-12-05T08:21:21.805Z,1156
2022-12-05T08:22:22.422Z,1168
2022-12-05T08:23:23.024Z,1160
2022-12-05T08:24:23.642Z,1136
2022-12-05T08:25:24.294Z,1116
2022-12-05T08:26:24.864Z,1176
2022-12-05T08:27:25.483Z,1188
2022-12-05T08:28:26.080Z,1180
2022-12-05T08:29:26.681Z,1212
2022-12-05T08:30:27.460Z,1160
2022-12-05T08:31:28.151Z,1168
2022-12-05T08:32:28.739Z,1260
2022-12-05T08:33:29.339Z,1304
2022-12-05T08:34:29.940Z,1284
2022-12-05T08:35:30.541Z,1288
2022-12-05T08:36:31.140Z,1296
2022-12-05T08:37:31.746Z,1296
2022-12-05T08:38:32.363Z,1348
2022-12-05T08:39:38.203Z,1408
2022-12-05T08:40:34.560Z,1436
2022-12-05T08:41:35.182Z,1468
2022-12-05T08:42:35.776Z,1492
2022-12-05T08:43:36.388Z,1548
2022-12-05T08:44:37.005Z,1536
2022-12-05T08:45:37.597Z,1540
2022-12-05T08:46:38.219Z,1588
2022-12-05T08:47:38.828Z,1648
2022-12-05T08:48:39.427Z,1632
2022-12-05T08:49:40.031Z,1628
2022-12-05T08:50:40.627Z,1612
2022-12-05T08:51:41.229Z,1596
2022-12-05T08:52:41.824Z,1720
2022-12-05T08:53:44.715Z,1800
2022-12-05T08:54:44.016Z,1844
2022-12-05T08:55:44.616Z,1964
2022-12-05T08:56:45.213Z,2112
2022-12-05T08:57:45.845Z,2184
2022-12-05T08:58:46.440Z,2176
2022-12-05T08:59:47.039Z,2120
2022-12-05T09:00:47.637Z,1976
2022-12-05T09:01:48.263Z,1960
2022-12-05T09:02:48.860Z,2028
2022-12-05T09:03:49.441Z,2088
2022-12-05T09:04:53.862Z,2096
2022-12-05T09:05:54.700Z,2036
2022-12-05T09:06:52.250Z,1920
2022-12-05T09:07:52.906Z,1872
2022-12-05T09:08:53.455Z,1900
2022-12-05T09:09:54.054Z,1956
2022-12-05T09:10:54.652Z,1932
2022-12-05T09:11:55.262Z,1916
2022-12-05T09:12:55.849Z,1928
2022-12-05T09:13:56.449Z,1972
2022-12-05T09:14:57.203Z,2024
2022-12-05T09:15:57.938Z,2056
2022-12-05T09:16:58.499Z,2068
2022-12-05T09:17:59.101Z,2068
2022-12-05T09:18:59.698Z,2096
2022-12-05T09:20:00.315Z,2108
2022-12-05T09:21:00.914Z,2140
2022-12-05T09:22:01.513Z,2188
2022-12-05T09:23:02.110Z,2228
2022-12-05T09:24:02.714Z,2300
2022-12-05T09:25:03.326Z,2308
2022-12-05T09:26:03.927Z,2248
2022-12-05T09:27:04.540Z,2160
2022-12-05T09:28:05.142Z,2112
2022-12-05T09:29:07.154Z,1940
2022-12-05T09:30:07.331Z,1868
2022-12-05T09:31:08.012Z,1876
2022-12-05T09:32:08.581Z,1900
2022-12-05T09:33:09.176Z,1964
2022-12-05T09:34:09.778Z,1956
2022-12-05T09:35:10.401Z,1884
2022-12-05T09:36:10.993Z,1880
2022-12-05T09:37:37.532Z,1948
2022-12-05T09:38:13.181Z,1980
2022-12-05T09:39:13.775Z,1936
2022-12-05T09:40:14.377Z,1908
2022-12-05T09:41:14.978Z,1936
2022-12-05T09:42:15.576Z,2048
2022-12-05T09:43:16.168Z,2020
2022-12-05T09:44:16.766Z,1980
2022-12-05T09:45:17.362Z,1968
2022-12-05T09:46:18.023Z,2008
2022-12-05T09:47:18.572Z,2008
2022-12-05T09:48:19.175Z,2056
2022-12-05T09:49:19.775Z,2096
2022-12-05T09:50:20.371Z,2200
2022-12-05T09:51:20.969Z,2336
2022-12-05T09:52:21.573Z,2384
2022-12-05T09:53:22.169Z,2396
2022-12-05T09:54:22.768Z,2420
2022-12-05T09:55:23.363Z,2508
2022-12-05T09:56:23.964Z,2612
2022-12-05T09:57:28.964Z,2588
2022-12-05T09:58:26.155Z,2672
2022-12-05T09:59:27.735Z,2664
2022-12-05T10:00:28.250Z,2652
2022-12-05T10:01:28.918Z,2892
2022-12-05T10:02:29.494Z,3084
2022-12-05T10:03:30.113Z,3200
2022-12-05T10:04:30.723Z,3244
2022-12-05T10:05:31.368Z,3324
2022-12-05T10:06:31.961Z,3380
2022-12-05T10:07:32.608Z,3352
2022-12-05T10:08:33.159Z,3372
2022-12-05T10:09:33.763Z,3488
2022-12-05T10:10:34.358Z,3564
2022-12-05T10:11:34.960Z,3616
2022-12-05T10:12:35.557Z,3700
2022-12-05T10:13:36.163Z,3748
2022-12-05T10:14:36.759Z,3792
2022-12-05T10:15:37.396Z,3768
2022-12-05T10:16:37.978Z,3636
2022-12-05T10:17:38.546Z,3760
2022-12-05T10:18:39.143Z,3928
2022-12-05T10:19:39.743Z,4020
2022-12-05T10:20:40.341Z,4112
2022-12-05T10:21:40.961Z,4080
2022-12-05T10:22:41.558Z,4048
2022-12-05T10:23:57.106Z,4036
2022-12-05T10:24:43.764Z,4104
2022-12-05T10:25:44.363Z,4320
2022-12-05T10:26:44.961Z,4520
2022-12-05T10:27:45.568Z,4564
2022-12-05T10:28:46.185Z,4808
2022-12-05T10:29:46.781Z,5116
2022-12-05T10:30:47.409Z,5248
2022-12-05T10:31:48.039Z,5508
2022-12-05T10:32:48.618Z,5760
2022-12-05T10:33:49.215Z,5912
2022-12-05T10:34:49.814Z,5924
2022-12-05T10:35:50.412Z,5872
2022-12-05T10:36:51.013Z,5680
2022-12-05T10:37:51.614Z,5716
2022-12-05T10:38:52.212Z,5980
2022-12-05T10:39:52.812Z,6140
2022-12-05T10:40:53.409Z,6100
2022-12-05T10:41:54.009Z,6116
2022-12-05T10:42:54.605Z,6104
2022-12-05T10:43:55.205Z,6152
2022-12-05T10:44:55.898Z,6128
2022-12-05T10:45:56.561Z,6016
2022-12-05T10:46:57.225Z,5688
2022-12-05T10:47:57.824Z,5340
2022-12-05T10:48:58.412Z,5140
2022-12-05T10:49:59.011Z,5036
2022-12-05T10:50:59.609Z,4744
2022-12-05T10:52:00.211Z,4464
2022-12-05T10:53:00.810Z,4260
2022-12-05T10:54:01.411Z,4068
2022-12-05T10:55:02.020Z,3996
2022-12-05T10:56:31.082Z,4100
2022-12-05T10:57:04.195Z,4124
2022-12-05T10:58:04.795Z,3908
2022-12-05T10:59:05.415Z,3764
2022-12-05T11:00:06.239Z,3800
2022-12-05T11:01:07.033Z,3864
2022-12-05T11:02:07.913Z,3980
2022-12-05T11:03:09.035Z,3964
2022-12-05T11:04:13.691Z,3856
2022-12-05T11:05:11.264Z,3724
2022-12-05T11:06:11.832Z,3640
2022-12-05T11:07:12.428Z,3840
2022-12-05T11:08:13.099Z,3908
2022-12-05T11:09:13.641Z,4040
2022-12-05T11:10:14.260Z,4360
2022-12-05T11:11:14.859Z,4692
2022-12-05T11:12:15.462Z,4976
2022-12-05T11:13:16.063Z,5208
2022-12-05T11:14:16.665Z,5176
2022-12-05T11:15:17.325Z,5156
2022-12-05T11:16:17.935Z,5736
2022-12-05T11:17:18.504Z,6432
2022-12-05T11:18:19.111Z,6364
2022-12-05T11:19:19.709Z,6368
2022-12-05T11:20:20.316Z,6592
2022-12-05T11:21:20.932Z,6848
2022-12-05T11:22:21.533Z,7128
2022-12-05T11:23:22.134Z,7264
2022-12-05T11:24:22.734Z,7416
2022-12-05T11:25:23.336Z,7500
2022-12-05T11:26:23.937Z,7524
2022-12-05T11:27:24.537Z,7372
2022-12-05T11:28:25.139Z,7672
2022-12-05T11:29:25.740Z,8168
2022-12-05T11:30:26.340Z,8416
2022-12-05T11:31:27.090Z,9128
2022-12-05T11:32:27.716Z,9376
2022-12-05T11:33:28.316Z,9876
2022-12-05T11:34:28.940Z,10040
2022-12-05T11:35:29.539Z,10040
2022-12-05T11:36:30.140Z,10084
2022-12-05T11:37:30.741Z,9732
2022-12-05T11:38:31.343Z,9320
2022-12-05T11:39:31.944Z,8932
2022-12-05T11:40:37.651Z,8004
2022-12-05T11:41:33.161Z,7900
2022-12-05T11:42:33.762Z,8144
2022-12-05T11:43:34.363Z,8232
2022-12-05T11:44:34.968Z,7968
2022-12-05T11:45:35.826Z,7512
2022-12-05T11:46:36.310Z,7120
2022-12-05T11:47:36.872Z,6912
2022-12-05T11:48:37.470Z,6776
2022-12-05T11:49:38.070Z,6820
2022-12-05T11:50:38.669Z,6904
2022-12-05T11:51:39.297Z,7040
2022-12-05T11:52:40.996Z,6888
2022-12-05T11:53:41.507Z,6876
2022-12-05T11:55:04.649Z,6904
2022-12-05T11:55:43.699Z,7228
2022-12-05T11:56:44.297Z,7476
2022-12-05T11:57:50.410Z,7916
2022-12-05T11:58:46.494Z,8336
2022-12-05T11:59:47.115Z,8576
2022-12-05T12:00:47.714Z,8688
2022-12-05T12:01:48.363Z,8312
2022-12-05T12:02:49.006Z,7892
2022-12-05T12:03:49.652Z,7788
2022-12-05T12:04:50.241Z,7680
2022-12-05T12:05:50.841Z,7296
2022-12-05T12:06:51.457Z,6704
2022-12-05T12:07:52.078Z,6308
2022-12-05T12:08:52.675Z,6052
2022-12-05T12:09:53.291Z,5864
2022-12-05T12:10:53.893Z,5644
2022-12-05T12:11:54.492Z,5448
2022-12-05T12:12:55.095Z,5272
2022-12-05T12:13:55.689Z,4940
2022-12-05T12:14:56.403Z,4800
2022-12-05T12:15:57.159Z,4620
2022-12-05T12:16:57.817Z,4468
2022-12-05T12:17:58.384Z,4396
2022-12-05T12:18:58.983Z,4340
2022-12-05T12:19:59.583Z,4208
2022-12-05T12:21:00.182Z,3984
2022-12-05T12:22:00.801Z,3892
2022-12-05T12:23:01.403Z,3932
2022-12-05T12:24:02.003Z,4048
2022-12-05T12:25:02.602Z,4184
2022-12-05T12:26:03.223Z,4316
2022-12-05T12:27:03.825Z,3876
2022-12-05T12:28:04.820Z,4060
2022-12-05T12:29:05.423Z,4276
2022-12-05T12:30:06.020Z,4144
2022-12-05T12:31:06.623Z,4216
2022-12-05T12:32:07.276Z,4424
2022-12-05T12:33:07.848Z,4748
2022-12-05T12:34:08.454Z,4968
2022-12-05T12:35:09.045Z,5028
2022-12-05T12:36:09.667Z,5076
2022-12-05T12:37:10.270Z,4984
2022-12-05T12:38:10.869Z,4952
2022-12-05T12:39:11.487Z,4892
2022-12-05T12:40:12.108Z,4812
2022-12-05T12:41:12.711Z,4724
2022-12-05T12:42:13.310Z,4768
2022-12-05T12:43:30.850Z,4836
2022-12-05T12:44:14.553Z,5060
2022-12-05T12:45:15.172Z,5244
2022-12-05T12:46:15.823Z,5352
2022-12-05T12:47:16.390Z,5472
2022-12-05T12:48:17.002Z,5600
2022-12-05T12:49:17.605Z,5768
2022-12-05T12:50:18.204Z,5844
2022-12-05T12:51:18.807Z,6164
2022-12-05T12:52:19.411Z,6296
2022-12-05T12:53:20.019Z,6376
2022-12-05T12:54:34.352Z,6652
2022-12-05T12:55:22.209Z,6892
2022-12-05T12:56:22.811Z,7076
2022-12-05T12:57:24.031Z,7164
2022-12-05T12:58:24.749Z,7196
2022-12-05T12:59:25.357Z,7168
2022-12-05T13:00:25.952Z,7124
2022-12-05T13:01:26.616Z,7132
2022-12-05T13:02:27.254Z,7240
2022-12-05T13:03:27.844Z,7220
2022-12-05T13:04:28.446Z,7420
2022-12-05T13:05:29.049Z,7752
2022-12-05T13:06:29.653Z,8212
2022-12-05T13:07:30.344Z,8460
2022-12-05T13:08:30.925Z,8660
2022-12-05T13:09:31.528Z,8656
2022-12-05T13:10:32.210Z,8692
2022-12-05T13:11:32.745Z,8828
2022-12-05T13:12:33.344Z,8720
2022-12-05T13:13:33.947Z,8512
2022-12-05T13:14:34.549Z,8464
2022-12-05T13:15:35.152Z,8480
2022-12-05T13:16:37.151Z,8336
2022-12-05T13:17:37.347Z,8208
2022-12-05T13:18:37.947Z,8040
2022-12-05T13:19:38.551Z,7852
2022-12-05T13:20:39.173Z,7512
2022-12-05T13:21:39.778Z,7308
2022-12-05T13:22:40.398Z,6920
2022-12-05T13:23:41.001Z,6600
2022-12-05T13:24:41.602Z,6368
2022-12-05T13:25:42.207Z,6300
2022-12-05T13:26:42.808Z,6344
2022-12-05T13:27:43.408Z,6300
2022-12-05T13:28:44.010Z,6156
2022-12-05T13:29:44.631Z,5972
2022-12-05T13:30:45.230Z,5720
2022-12-05T13:31:45.920Z,5524
2022-12-05T13:32:46.585Z,5356
2022-12-05T13:33:47.189Z,5320
2022-12-05T13:34:47.808Z,5288
2022-12-05T13:35:48.409Z,5204
2022-12-05T13:36:49.011Z,5180
2022-12-05T13:37:49.611Z,5240
2022-12-05T13:38:50.210Z,5348
2022-12-05T13:39:50.811Z,5368
2022-12-05T13:40:51.410Z,5432
2022-12-05T13:41:52.013Z,5504
2022-12-05T13:42:52.616Z,5296
2022-12-05T13:44:05.350Z,5196
2022-12-05T13:44:54.807Z,4896
2022-12-05T13:45:55.447Z,4752
2022-12-05T13:46:56.018Z,4680
2022-12-05T13:47:56.620Z,4492
2022-12-05T13:48:57.223Z,4344
2022-12-05T13:49:58.106Z,4224
2022-12-05T13:50:58.793Z,4116
2022-12-05T13:51:59.393Z,4044
2022-12-05T13:52:59.995Z,4096
2022-12-05T13:54:00.600Z,4124
2022-12-05T13:55:01.201Z,4180
2022-12-05T13:56:01.800Z,4216
2022-12-05T13:57:02.430Z,4264
2022-12-05T13:58:03.014Z,4352
2022-12-05T13:59:03.608Z,4408
2022-12-05T14:00:04.208Z,4380
2022-12-05T14:01:04.849Z,4224
2022-12-05T14:02:05.499Z,3972
2022-12-05T14:03:06.072Z,3668
2022-12-05T14:04:06.675Z,3480
2022-12-05T14:05:07.275Z,3392
2022-12-05T14:06:07.903Z,3292
2022-12-05T14:07:08.515Z,3184
2022-12-05T14:08:09.217Z,2992
2022-12-05T14:09:09.756Z,2804
2022-12-05T14:10:10.367Z,2672
2022-12-05T14:11:10.964Z,2556
2022-12-05T14:12:11.574Z,2484